createdAt,value
2022-09-10T00:01:17.025Z,23.30
2022-09-10T00:03:43.688Z,23.20
2022-09-10T00:06:10.492Z,23.20
2022-09-10T00:08:38.166Z,23.20
2022-09-10T00:11:05.553Z,23.20
2022-09-10T00:13:32.543Z,23.20
2022-09-10T00:15:59.304Z,23.20
2022-09-10T00:18:25.908Z,23.30
2022-09-10T00:20:53.097Z,23.20
2022-09-10T00:23:20.543Z,23.40
2022-09-10T00:25:47.144Z,23.20
2022-09-10T00:28:13.874Z,23.30
2022-09-10T00:30:41.027Z,23.30
2022-09-10T00:33:08.120Z,23.30
2022-09-10T00:35:34.701Z,23.10
2022-09-10T00:38:01.319Z,23.10
2022-09-10T00:40:28.515Z,23.00
2022-09-10T00:42:55.299Z,22.70
2022-09-10T00:45:23.199Z,23.20
2022-09-10T00:47:50.365Z,23.00
2022-09-10T00:50:21.623Z,23.20
2022-09-10T00:52:48.664Z,23.00
2022-09-10T00:55:15.260Z,22.90
2022-09-10T00:57:41.822Z,23.00
2022-09-10T01:00:10.278Z,23.00
2022-09-10T01:02:36.909Z,23.00
2022-09-10T01:05:03.786Z,23.00
2022-09-10T01:07:30.426Z,23.20
2022-09-10T01:09:57.542Z,23.50
2022-09-10T01:12:44.340Z,23.50
2022-09-10T01:15:22.043Z,23.50
2022-09-10T01:17:58.997Z,23.70
2022-09-10T01:20:34.539Z,23.60
2022-09-10T01:23:04.782Z,23.60
2022-09-10T01:25:31.373Z,23.60
2022-09-10T01:27:57.989Z,23.40
2022-09-10T01:30:25.722Z,23.30
2022-09-10T01:33:00.659Z,23.40
2022-09-10T01:35:33.294Z,23.20
2022-09-10T01:38:00.696Z,23.20
2022-09-10T01:40:30.323Z,23.10
2022-09-10T01:43:01.248Z,23.20
2022-09-10T01:45:28.729Z,23.10
2022-09-10T01:48:06.215Z,23.10
2022-09-10T01:50:43.590Z,23.10
2022-09-10T01:53:14.016Z,23.10
2022-09-10T01:55:44.146Z,23.10
2022-09-10T01:58:10.746Z,23.00
2022-09-10T02:00:38.154Z,23.00
2022-09-10T02:03:16.093Z,23.00
2022-09-10T02:05:43.464Z,23.00
2022-09-10T02:08:11.690Z,23.00
2022-09-10T02:10:53.863Z,23.00
2022-09-10T02:13:20.785Z,22.90
2022-09-10T02:15:49.232Z,22.90
2022-09-10T02:18:15.849Z,22.90
2022-09-10T02:20:42.458Z,22.90
2022-09-10T02:23:09.228Z,22.90
2022-09-10T02:25:37.372Z,22.80
2022-09-10T02:28:04.671Z,22.80
2022-09-10T02:30:31.253Z,22.70
2022-09-10T02:32:57.915Z,22.80
2022-09-10T02:35:24.535Z,22.80
2022-09-10T02:37:51.139Z,22.80
2022-09-10T02:40:19.461Z,22.80
2022-09-10T02:42:46.766Z,22.80
2022-09-10T02:45:13.895Z,22.80
2022-09-10T02:47:40.470Z,22.70
2022-09-10T02:50:07.626Z,22.70
2022-09-10T02:52:34.341Z,22.70
2022-09-10T02:55:01.377Z,22.70
2022-09-10T02:57:27.982Z,22.70
2022-09-10T02:59:56.426Z,22.70
2022-09-10T03:02:23.193Z,22.80
2022-09-10T03:04:49.883Z,22.80
2022-09-10T03:07:20.239Z,22.90
2022-09-10T03:09:47.108Z,23.10
2022-09-10T03:12:15.845Z,23.20
2022-09-10T03:14:47.309Z,23.30
2022-09-10T03:17:13.890Z,23.30
2022-09-10T03:19:40.497Z,23.50
2022-09-10T03:22:07.157Z,23.50
2022-09-10T03:24:33.753Z,23.40
2022-09-10T03:27:01.324Z,23.30
2022-09-10T03:29:30.101Z,23.20
2022-09-10T03:31:56.780Z,23.20
2022-09-10T03:34:23.404Z,23.10
2022-09-10T03:36:51.446Z,23.10
2022-09-10T03:39:18.929Z,23.10
2022-09-10T03:41:45.824Z,23.00
2022-09-10T03:44:12.694Z,23.00
2022-09-10T03:46:39.320Z,23.00
2022-09-10T03:49:06.492Z,22.80
2022-09-10T03:51:34.067Z,23.00
2022-09-10T03:54:00.732Z,22.90
2022-09-10T03:56:27.491Z,22.90
2022-09-10T03:58:54.108Z,22.90
2022-09-10T04:01:20.699Z,22.80
2022-09-10T04:03:47.331Z,22.90
2022-09-10T04:06:14.283Z,22.80
2022-09-10T04:08:40.854Z,22.80
2022-09-10T04:11:07.447Z,22.80
2022-09-10T04:13:34.014Z,22.90
2022-09-10T04:16:00.762Z,22.70
2022-09-10T04:18:28.117Z,22.80
2022-09-10T04:20:54.896Z,22.80
2022-09-10T04:23:21.624Z,22.80
2022-09-10T04:25:49.689Z,22.80
2022-09-10T04:28:16.326Z,22.80
2022-09-10T04:30:43.688Z,22.80
2022-09-10T04:33:11.616Z,22.80
2022-09-10T04:35:39.572Z,22.80
2022-09-10T04:38:07.158Z,22.80
2022-09-10T04:40:34.339Z,22.90
2022-09-10T04:43:01.038Z,22.90
2022-09-10T04:45:27.772Z,22.80
2022-09-10T04:47:54.401Z,22.90
2022-09-10T04:50:21.898Z,22.90
2022-09-10T04:52:48.504Z,22.90
2022-09-10T04:55:15.640Z,22.90
2022-09-10T04:57:42.264Z,22.90
2022-09-10T05:00:09.231Z,22.90
2022-09-10T05:02:37.390Z,22.90
2022-09-10T05:05:04.079Z,22.90
2022-09-10T05:07:30.940Z,22.90
2022-09-10T05:09:57.557Z,22.90
2022-09-10T05:12:24.277Z,23.00
2022-09-10T05:14:50.907Z,23.10
2022-09-10T05:17:17.479Z,23.20
2022-09-10T05:19:44.085Z,23.40
2022-09-10T05:22:10.736Z,23.60
2022-09-10T05:24:37.356Z,23.70
2022-09-10T05:27:04.154Z,23.60
2022-09-10T05:29:37.228Z,23.60
2022-09-10T05:32:03.826Z,23.50
2022-09-10T05:34:30.439Z,23.40
2022-09-10T05:36:57.019Z,23.40
2022-09-10T05:39:23.668Z,23.30
2022-09-10T05:41:50.284Z,23.20
2022-09-10T05:44:17.561Z,22.90
2022-09-10T05:46:44.703Z,22.70
2022-09-10T05:49:13.220Z,22.40
2022-09-10T05:51:39.896Z,22.20
2022-09-10T05:54:06.527Z,22.10
2022-09-10T05:56:33.139Z,21.90
2022-09-10T05:58:59.777Z,21.80
2022-09-10T06:01:26.446Z,21.70
2022-09-10T06:03:53.123Z,21.70
2022-09-10T06:06:19.703Z,21.90
2022-09-10T06:08:50.863Z,21.70
2022-09-10T06:11:17.797Z,21.80
2022-09-10T06:13:44.404Z,21.70
2022-09-10T06:16:11.850Z,21.70
2022-09-10T06:18:38.875Z,21.70
2022-09-10T06:21:10.306Z,21.60
2022-09-10T06:23:36.930Z,21.50
2022-09-10T06:26:04.371Z,21.50
2022-09-10T06:28:31.851Z,21.50
2022-09-10T06:30:58.625Z,21.60
2022-09-10T06:33:25.367Z,21.60
2022-09-10T06:35:53.704Z,21.60
2022-09-10T06:38:20.428Z,21.60
2022-09-10T06:40:57.803Z,21.60
2022-09-10T06:43:25.982Z,21.50
2022-09-10T06:45:55.722Z,21.50
2022-09-10T06:48:40.489Z,21.50
2022-09-10T06:51:09.637Z,21.50
2022-09-10T06:53:36.414Z,21.50
2022-09-10T06:56:03.263Z,21.60
2022-09-10T06:58:30.743Z,21.50
2022-09-10T07:00:57.503Z,21.50
2022-09-10T07:03:24.214Z,21.60
2022-09-10T07:05:53.437Z,21.50
2022-09-10T07:08:21.114Z,21.50
2022-09-10T07:10:47.718Z,21.50
2022-09-10T07:13:14.328Z,21.50
2022-09-10T07:15:47.027Z,21.50
2022-09-10T07:18:16.535Z,21.50
2022-09-10T07:20:43.507Z,21.40
2022-09-10T07:23:13.601Z,21.60
2022-09-10T07:25:40.694Z,21.50
2022-09-10T07:28:13.102Z,21.40
2022-09-10T07:30:40.308Z,21.50
2022-09-10T07:33:07.026Z,21.50
2022-09-10T07:35:34.341Z,21.30
2022-09-10T07:38:01.004Z,21.40
2022-09-10T07:40:28.560Z,21.40
2022-09-10T07:42:55.780Z,21.50
2022-09-10T07:45:22.457Z,21.50
2022-09-10T07:47:49.982Z,21.60
2022-09-10T07:50:16.688Z,21.70
2022-09-10T07:52:43.365Z,21.60
2022-09-10T07:55:10.073Z,21.60
2022-09-10T07:57:37.951Z,21.60
2022-09-10T08:00:05.395Z,21.60
2022-09-10T08:02:32.058Z,21.70
2022-09-10T08:04:58.729Z,21.70
2022-09-10T08:07:25.348Z,21.80
2022-09-10T08:09:51.966Z,21.80
2022-09-10T08:12:18.651Z,21.90
2022-09-10T08:14:45.299Z,22.00
2022-09-10T08:17:11.922Z,22.00
2022-09-10T08:19:39.400Z,22.10
2022-09-10T08:22:09.156Z,22.20
2022-09-10T08:24:39.350Z,22.30
2022-09-10T08:27:05.949Z,22.50
2022-09-10T08:29:32.565Z,22.60
2022-09-10T08:31:59.217Z,22.80
2022-09-10T08:34:26.508Z,23.00
2022-09-10T08:36:55.642Z,23.20
2022-09-10T08:39:29.716Z,23.40
2022-09-10T08:41:58.172Z,23.60
2022-09-10T08:44:52.251Z,23.70
2022-09-10T08:47:21.210Z,23.80
2022-09-10T08:49:54.946Z,23.70
2022-09-10T08:52:21.552Z,23.60
2022-09-10T08:54:54.265Z,23.40
2022-09-10T08:57:25.537Z,23.40
2022-09-10T08:59:52.465Z,23.30
2022-09-10T09:02:52.438Z,23.20
2022-09-10T09:05:19.582Z,23.10
2022-09-10T09:07:47.113Z,23.00
2022-09-10T09:10:34.067Z,23.00
2022-09-10T09:13:19.650Z,22.90
2022-09-10T09:16:05.032Z,22.80
2022-09-10T09:18:35.016Z,22.80
2022-09-10T09:21:04.337Z,22.80
2022-09-10T09:24:02.648Z,22.80
2022-09-10T09:26:29.876Z,22.80
2022-09-10T09:29:00.475Z,22.80
2022-09-10T09:31:31.175Z,22.80
2022-09-10T09:34:04.927Z,22.80
2022-09-10T09:36:37.829Z,22.80
2022-09-10T09:39:04.559Z,22.80
2022-09-10T09:41:42.465Z,22.80
2022-09-10T09:44:15.215Z,22.80
2022-09-10T09:46:42.618Z,22.80
2022-09-10T09:49:10.918Z,22.80
2022-09-10T09:51:37.734Z,22.80
2022-09-10T09:56:58.934Z,22.80
2022-09-10T09:59:26.505Z,22.80
2022-09-10T10:01:54.407Z,22.80
2022-09-10T10:04:22.649Z,22.70
2022-09-10T10:06:56.382Z,22.70
2022-09-10T10:09:23.766Z,22.70
2022-09-10T10:11:57.742Z,22.70
2022-09-10T10:14:24.419Z,22.70
2022-09-10T10:16:52.371Z,22.70
2022-09-10T10:19:28.151Z,22.80
2022-09-10T10:21:54.839Z,22.90
2022-09-10T10:24:29.427Z,23.00
2022-09-10T10:26:56.055Z,23.10
2022-09-10T10:29:22.674Z,23.20
2022-09-10T10:31:49.542Z,23.40
2022-09-10T10:34:16.194Z,23.40
2022-09-10T10:36:53.335Z,23.30
2022-09-10T10:39:20.023Z,23.30
2022-09-10T10:41:59.308Z,23.20
2022-09-10T10:44:48.991Z,23.20
2022-09-10T10:47:28.291Z,23.10
2022-09-10T10:49:58.435Z,23.10
2022-09-10T10:52:28.089Z,23.10
2022-09-10T10:55:00.844Z,23.10
2022-09-10T10:57:30.582Z,23.10
2022-09-10T11:00:09.397Z,23.00
2022-09-10T11:02:36.354Z,23.00
2022-09-10T11:05:08.400Z,23.00
2022-09-10T11:07:39.444Z,23.00
2022-09-10T11:10:23.502Z,23.00
2022-09-10T11:12:55.221Z,23.00
2022-09-10T11:15:21.945Z,23.00
2022-09-10T11:17:51.645Z,23.00
2022-09-10T11:20:28.969Z,22.90
2022-09-10T11:23:03.742Z,23.00
2022-09-10T11:25:53.065Z,23.00
2022-09-10T11:28:22.359Z,22.90
2022-09-10T11:30:50.614Z,22.90
2022-09-10T11:33:20.952Z,23.10
2022-09-10T11:35:48.322Z,23.20
2022-09-10T11:38:20.540Z,23.30
2022-09-10T11:40:59.296Z,23.50
2022-09-10T11:43:28.528Z,23.60
2022-09-10T11:45:56.144Z,23.60
2022-09-10T11:48:41.258Z,23.60
2022-09-10T11:51:10.449Z,23.50
2022-09-10T11:53:37.314Z,23.50
2022-09-10T11:56:05.096Z,23.40
2022-09-10T11:58:31.985Z,23.40
2022-09-10T12:01:07.914Z,23.30
2022-09-10T12:03:34.540Z,23.30
2022-09-10T12:06:09.513Z,23.30
2022-09-10T12:08:45.586Z,23.30
2022-09-10T12:11:19.167Z,23.30
2022-09-10T12:13:45.983Z,23.20
2022-09-10T12:16:19.269Z,23.20
2022-09-10T12:18:48.005Z,23.20
2022-09-10T12:21:32.590Z,23.20
2022-09-10T12:24:00.147Z,23.30
2022-09-10T12:26:27.517Z,23.30
2022-09-10T12:29:00.755Z,23.20
2022-09-10T12:31:28.071Z,23.20
2022-09-10T12:33:54.778Z,23.20
2022-09-10T12:36:28.652Z,23.20
2022-09-10T12:38:56.420Z,23.30
2022-09-10T12:41:23.083Z,23.40
2022-09-10T12:43:50.820Z,23.60
2022-09-10T12:46:18.431Z,23.70
2022-09-10T12:48:45.714Z,23.80
2022-09-10T12:54:53.613Z,23.80
2022-09-10T12:57:23.323Z,23.70
2022-09-10T12:59:53.985Z,23.70
2022-09-10T13:02:28.564Z,23.60
2022-09-10T13:04:59.947Z,23.60
2022-09-10T13:07:31.829Z,23.60
2022-09-10T13:10:06.623Z,23.50
2022-09-10T13:12:34.187Z,23.50
2022-09-10T13:15:04.023Z,23.50
2022-09-10T13:17:34.951Z,23.40
2022-09-10T13:20:12.968Z,23.40
2022-09-10T13:22:56.808Z,23.40
2022-09-10T13:25:25.022Z,23.40
2022-09-10T13:27:52.029Z,23.40
2022-09-10T13:30:23.326Z,23.30
2022-09-10T13:32:58.091Z,23.30
2022-09-10T13:35:41.490Z,23.30
2022-09-10T13:38:08.494Z,23.30
2022-09-10T13:41:00.041Z,23.30
2022-09-10T13:43:45.584Z,23.30
2022-09-10T13:46:14.859Z,23.40
2022-09-10T13:48:44.651Z,23.60
2022-09-10T13:51:41.105Z,23.70
2022-09-10T13:54:09.364Z,23.80
2022-09-10T13:56:36.473Z,23.90
2022-09-10T13:59:03.580Z,24.00
2022-09-10T14:01:50.837Z,24.00
2022-09-10T14:04:21.549Z,23.90
2022-09-10T14:10:15.412Z,23.70
2022-09-10T14:12:43.343Z,23.70
2022-09-10T14:15:18.836Z,23.60
2022-09-10T14:23:30.103Z,23.60
2022-09-10T14:26:15.829Z,23.40
2022-09-10T14:29:00.001Z,23.30
2022-09-10T14:31:31.358Z,23.30
2022-09-10T14:33:59.060Z,23.30
2022-09-10T14:36:33.650Z,23.20
2022-09-10T14:39:28.673Z,23.20
2022-09-10T14:42:23.716Z,23.20
2022-09-10T14:44:56.254Z,23.30
2022-09-10T14:47:38.483Z,23.30
2022-09-10T14:50:32.098Z,23.40
2022-09-10T14:53:03.823Z,23.40
2022-09-10T14:55:34.884Z,23.40
2022-09-10T14:58:03.011Z,23.30
2022-09-10T15:00:34.258Z,23.40
2022-09-10T15:03:04.373Z,23.40
2022-09-10T15:05:36.091Z,23.50
2022-09-10T15:08:08.473Z,23.60
2022-09-10T15:10:39.738Z,23.70
2022-09-10T15:13:52.048Z,23.60
2022-09-10T15:16:28.370Z,23.50
2022-09-10T15:18:55.555Z,23.40
2022-09-10T15:21:23.259Z,23.30
2022-09-10T15:23:49.965Z,23.20
2022-09-10T15:26:16.710Z,23.20
2022-09-10T15:28:43.396Z,23.10
2022-09-10T15:31:10.987Z,23.10
2022-09-10T15:33:37.801Z,23.10
2022-09-10T15:36:04.805Z,23.00
2022-09-10T15:38:31.514Z,23.00
2022-09-10T15:41:06.380Z,23.00
2022-09-10T15:43:34.806Z,23.00
2022-09-10T15:46:01.558Z,22.90
2022-09-10T15:48:33.560Z,22.90
2022-09-10T15:51:03.689Z,22.90
2022-09-10T15:53:32.869Z,22.90
2022-09-10T15:56:00.474Z,22.80
2022-09-10T15:58:28.885Z,22.80
2022-09-10T16:00:56.459Z,22.80
2022-09-10T16:03:23.218Z,22.80
2022-09-10T16:05:49.913Z,22.80
2022-09-10T16:08:33.036Z,22.80
2022-09-10T16:11:08.114Z,22.80
2022-09-10T16:13:44.206Z,22.80
2022-09-10T16:16:22.250Z,22.80
2022-09-10T16:18:52.836Z,22.80
2022-09-10T16:21:25.596Z,23.00
2022-09-10T16:23:56.035Z,23.10
2022-09-10T16:26:24.853Z,23.20
2022-09-10T16:28:51.930Z,23.30
2022-09-10T16:31:22.825Z,23.40
2022-09-10T16:33:54.042Z,23.30
2022-09-10T16:36:22.412Z,23.40
2022-09-10T16:38:52.215Z,23.20
2022-09-10T16:41:19.115Z,23.10
2022-09-10T16:43:49.625Z,23.10
2022-09-10T16:46:17.981Z,23.10
2022-09-10T16:48:45.106Z,23.10
2022-09-10T16:51:15.765Z,23.00
2022-09-10T16:53:44.348Z,23.00
2022-09-10T16:56:12.733Z,23.00
2022-09-10T16:58:40.505Z,23.00
2022-09-10T17:01:11.484Z,22.90
2022-09-10T17:03:45.286Z,22.80
2022-09-10T17:06:21.566Z,22.80
2022-09-10T17:08:50.438Z,22.80
2022-09-10T17:11:18.221Z,22.80
2022-09-10T17:13:46.618Z,22.70
2022-09-10T17:16:17.754Z,22.70
2022-09-10T17:18:44.990Z,22.70
2022-09-10T17:21:13.455Z,22.60
2022-09-10T17:23:41.748Z,22.60
2022-09-10T17:26:08.914Z,22.60
2022-09-10T17:28:39.042Z,22.60
2022-09-10T17:31:06.501Z,22.80
2022-09-10T17:33:34.007Z,22.90
2022-09-10T17:36:01.683Z,23.10
2022-09-10T17:38:29.123Z,23.30
2022-09-10T17:41:02.538Z,23.40
2022-09-10T17:43:30.414Z,23.40
2022-09-10T17:45:58.474Z,23.30
2022-09-10T17:48:28.292Z,23.30
2022-09-10T17:50:55.372Z,23.20
2022-09-10T17:53:22.636Z,23.10
2022-09-10T17:55:49.939Z,23.10
2022-09-10T17:58:18.945Z,23.00
2022-09-10T18:00:49.878Z,23.00
2022-09-10T18:03:17.911Z,23.00
2022-09-10T18:05:45.199Z,22.90
2022-09-10T18:08:15.197Z,22.90
2022-09-10T18:10:42.245Z,22.90
2022-09-10T18:13:10.309Z,22.80
2022-09-10T18:15:42.360Z,22.80
2022-09-10T18:18:09.927Z,22.80
2022-09-10T18:20:36.971Z,22.80
2022-09-10T18:23:04.042Z,22.80
2022-09-10T18:25:31.771Z,22.80
2022-09-10T18:27:59.129Z,22.80
2022-09-10T18:30:26.956Z,22.80
2022-09-10T18:32:56.725Z,22.80
2022-09-10T18:35:23.780Z,22.90
2022-09-10T18:37:52.392Z,23.00
2022-09-10T18:40:19.878Z,23.00
2022-09-10T18:42:48.081Z,23.00
2022-09-10T18:45:15.868Z,23.00
2022-09-10T18:47:45.385Z,23.10
2022-09-10T18:50:13.519Z,23.10
2022-09-10T18:52:42.844Z,23.20
2022-09-10T18:55:09.721Z,23.30
2022-09-10T18:57:36.643Z,23.40
2022-09-10T19:00:03.883Z,23.50
2022-09-10T19:02:30.706Z,23.60
2022-09-10T19:05:14.467Z,23.70
2022-09-10T19:07:41.496Z,23.70
2022-09-10T19:10:08.986Z,23.70
2022-09-10T19:12:35.693Z,23.70
2022-09-10T19:15:02.364Z,23.70
2022-09-10T19:17:29.045Z,23.70
2022-09-10T19:19:55.719Z,23.70
2022-09-10T19:22:22.363Z,23.60
2022-09-10T19:24:56.543Z,23.60
2022-09-10T19:27:23.532Z,23.60
2022-09-10T19:29:50.550Z,23.60
2022-09-10T19:32:19.643Z,23.60
2022-09-10T19:34:48.914Z,23.70
2022-09-10T19:37:15.661Z,23.60
2022-09-10T19:39:43.089Z,23.60
2022-09-10T19:42:09.943Z,23.60
2022-09-10T19:44:36.751Z,23.60
2022-09-10T19:47:04.171Z,23.60
2022-09-10T19:49:31.368Z,23.60
2022-09-10T19:51:58.125Z,23.60
2022-09-10T19:54:25.798Z,23.60
2022-09-10T19:56:52.590Z,23.60
2022-09-10T19:59:20.246Z,23.70
2022-09-10T20:01:47.003Z,23.60
2022-09-10T20:04:14.395Z,23.60
2022-09-10T20:06:42.486Z,23.70
2022-09-10T20:09:10.106Z,23.70
2022-09-10T20:11:37.096Z,23.60
2022-09-10T20:14:13.522Z,23.70
2022-09-10T20:16:42.376Z,23.90
2022-09-10T20:19:10.933Z,24.00
2022-09-10T20:21:37.714Z,24.10
2022-09-10T20:24:05.725Z,24.30
2022-09-10T20:26:33.513Z,24.40
2022-09-10T20:29:00.959Z,24.40
2022-09-10T20:31:28.825Z,24.40
2022-09-10T20:33:56.569Z,24.40
2022-09-10T20:36:23.309Z,24.40
2022-09-10T20:38:50.528Z,24.30
2022-09-10T20:41:17.289Z,24.30
2022-09-10T20:43:43.954Z,24.20
2022-09-10T20:46:15.432Z,24.20
2022-09-10T20:48:45.885Z,24.10
2022-09-10T20:51:15.188Z,24.10
2022-09-10T20:53:42.284Z,24.00
2022-09-10T20:56:13.161Z,24.00
2022-09-10T20:58:40.632Z,24.00
2022-09-10T21:01:08.198Z,24.00
2022-09-10T21:03:34.881Z,23.90
2022-09-10T21:06:02.171Z,23.90
2022-09-10T21:08:31.392Z,23.90
2022-09-10T21:11:02.543Z,23.90
2022-09-10T21:13:29.481Z,23.90
2022-09-10T21:16:03.483Z,23.90
2022-09-10T21:18:30.205Z,23.90
2022-09-10T21:21:04.917Z,23.80
2022-09-10T21:23:31.580Z,23.90
2022-09-10T21:25:58.312Z,23.80
2022-09-10T21:28:27.196Z,23.80
2022-09-10T21:30:53.981Z,23.80
2022-09-10T21:33:20.730Z,23.80
2022-09-10T21:35:47.438Z,23.80
2022-09-10T21:38:14.315Z,23.80
2022-09-10T21:40:41.846Z,23.80
2022-09-10T21:43:09.823Z,23.80
2022-09-10T21:45:36.753Z,23.90
2022-09-10T21:48:03.433Z,24.00
2022-09-10T21:50:30.089Z,24.20
2022-09-10T21:52:56.757Z,24.40
2022-09-10T21:55:23.485Z,24.50
2022-09-10T21:57:50.147Z,24.60
2022-09-10T22:00:16.881Z,24.60
2022-09-10T22:02:43.607Z,24.50
2022-09-10T22:05:10.374Z,24.40
2022-09-10T22:07:37.099Z,24.40
2022-09-10T22:10:05.957Z,24.30
2022-09-10T22:12:32.636Z,24.30
2022-09-10T22:14:59.337Z,24.20
2022-09-10T22:17:26.361Z,24.20
2022-09-10T22:19:53.177Z,24.10
2022-09-10T22:22:19.887Z,24.10
2022-09-10T22:24:46.506Z,24.10
2022-09-10T22:27:13.192Z,24.00
2022-09-10T22:29:39.881Z,24.00
2022-09-10T22:32:06.529Z,24.00
2022-09-10T22:34:33.181Z,24.00
2022-09-10T22:37:03.253Z,24.00
2022-09-10T22:39:31.924Z,23.90
2022-09-10T22:41:58.770Z,23.90
2022-09-10T22:44:25.802Z,23.90
2022-09-10T22:46:53.942Z,23.90
2022-09-10T22:49:21.936Z,23.90
2022-09-10T22:51:49.079Z,23.90
2022-09-10T22:54:16.636Z,23.90
2022-09-10T22:56:44.566Z,23.90
2022-09-10T22:59:11.846Z,23.90
2022-09-10T23:01:38.641Z,23.90
2022-09-10T23:04:05.662Z,23.80
2022-09-10T23:06:32.683Z,23.80
2022-09-10T23:09:03.811Z,23.80
2022-09-10T23:11:31.287Z,23.90
2022-09-10T23:14:04.932Z,24.00
2022-09-10T23:16:32.226Z,24.10
2022-09-10T23:18:59.909Z,24.30
2022-09-10T23:21:27.310Z,24.40
2022-09-10T23:24:01.012Z,24.60
2022-09-10T23:26:27.744Z,24.60
2022-09-10T23:28:55.259Z,24.60
2022-09-10T23:31:23.715Z,24.60
2022-09-10T23:33:55.181Z,24.50
2022-09-10T23:36:21.997Z,24.50
2022-09-10T23:38:48.733Z,24.40
2022-09-10T23:41:18.370Z,24.30
2022-09-10T23:43:45.513Z,24.30
2022-09-10T23:46:12.962Z,24.30
2022-09-10T23:48:39.961Z,24.20
2022-09-10T23:51:06.668Z,24.20
2022-09-10T23:53:33.410Z,24.10
2022-09-10T23:56:00.867Z,24.10
2022-09-10T23:58:27.562Z,24.10
